createdAt,value
2018-07-15T00:00:52.687Z,75.2
2018-07-15T00:01:53.415Z,74.1
2018-07-15T00:02:54.393Z,74.1
2018-07-15T00:03:55.103Z,73.9
2018-07-15T00:04:55.828Z,73.7
2018-07-15T00:05:56.552Z,73.6
2018-07-15T00:06:57.626Z,74.3
2018-07-15T00:07:58.338Z,74.1
2018-07-15T00:08:59.070Z,74.1
2018-07-15T00:09:59.798Z,73.7
2018-07-15T00:11:00.513Z,74.1
2018-07-15T00:12:01.290Z,73.4
2018-07-15T00:13:02.008Z,73.9
2018-07-15T00:14:02.740Z,74.2
2018-07-15T00:15:03.453Z,73.8
2018-07-15T00:16:04.174Z,73.6
2018-07-15T00:17:04.893Z,74.1
2018-07-15T00:18:05.868Z,74.1
2018-07-15T00:19:06.591Z,73.4
2018-07-15T00:20:07.309Z,73.3
2018-07-15T00:21:08.038Z,73.3
2018-07-15T00:22:08.747Z,73.1
2018-07-15T00:23:09.474Z,73.3
2018-07-15T00:24:10.188Z,73.5
2018-07-15T00:25:10.922Z,73.7
2018-07-15T00:26:11.708Z,73.9
2018-07-15T00:27:12.428Z,73.7
2018-07-15T00:28:13.164Z,73.8
2018-07-15T00:29:13.889Z,73.7
2018-07-15T00:30:14.872Z,73.3
2018-07-15T00:31:15.589Z,73.9
2018-07-15T00:32:16.303Z,73.9
2018-07-15T00:33:17.271Z,73.6
2018-07-15T00:34:18.036Z,73.3
2018-07-15T00:35:18.756Z,73.4
2018-07-15T00:36:19.469Z,73.2
2018-07-15T00:37:20.182Z,72.9
2018-07-15T00:38:20.890Z,73.0
2018-07-15T00:39:21.625Z,72.3
2018-07-15T00:40:22.347Z,72.2
2018-07-15T00:41:23.076Z,72.5
2018-07-15T00:42:23.804Z,72.2
2018-07-15T00:43:24.778Z,71.4
2018-07-15T00:44:25.762Z,71.7
2018-07-15T00:45:26.738Z,72.1
2018-07-15T00:46:27.444Z,72.4
2018-07-15T00:47:28.168Z,72.0
2018-07-15T00:48:28.882Z,72.3
2018-07-15T00:49:29.615Z,72.3
2018-07-15T00:50:30.336Z,72.3
2018-07-15T00:51:31.054Z,72.5
2018-07-15T00:52:31.787Z,72.0
2018-07-15T00:53:32.764Z,71.8
2018-07-15T00:54:33.476Z,71.9
2018-07-15T00:55:34.465Z,71.3
2018-07-15T00:56:35.174Z,71.8
2018-07-15T00:57:35.905Z,72.0
2018-07-15T00:58:36.620Z,71.9
2018-07-15T00:59:37.344Z,71.6
2018-07-15T01:00:38.433Z,71.6
2018-07-15T01:01:39.507Z,72.0
2018-07-15T01:02:40.274Z,71.0
2018-07-15T01:03:40.977Z,71.8
2018-07-15T01:04:41.711Z,71.0
2018-07-15T01:05:42.428Z,70.8
2018-07-15T01:06:43.504Z,71.0
2018-07-15T01:07:44.232Z,71.1
2018-07-15T01:08:44.956Z,70.9
2018-07-15T01:09:45.679Z,71.8
2018-07-15T01:10:46.405Z,71.5
2018-07-15T01:11:47.565Z,71.5
2018-07-15T01:12:48.336Z,71.1
2018-07-15T01:13:49.308Z,71.5
2018-07-15T01:14:50.114Z,70.8
2018-07-15T01:15:50.891Z,71.0
2018-07-15T01:16:51.659Z,70.9
2018-07-15T01:17:52.419Z,70.7
2018-07-15T01:18:53.348Z,70.4
2018-07-15T01:19:54.177Z,70.1
2018-07-15T01:20:54.946Z,70.3
2018-07-15T01:21:55.835Z,69.7
2018-07-15T01:22:56.605Z,69.7
2018-07-15T01:23:57.410Z,69.9
2018-07-15T01:24:58.336Z,69.9
2018-07-15T01:25:59.080Z,69.6
2018-07-15T01:26:59.889Z,69.7
2018-07-15T01:28:01.077Z,69.8
2018-07-15T01:29:01.811Z,70.0
2018-07-15T01:30:02.617Z,69.7
2018-07-15T01:31:03.426Z,69.6
2018-07-15T01:32:04.278Z,69.6
2018-07-15T01:33:05.237Z,69.8
2018-07-15T01:34:05.955Z,69.6
2018-07-15T01:35:06.804Z,69.6
2018-07-15T01:36:07.757Z,69.7
2018-07-15T01:37:08.512Z,70.3
2018-07-15T01:38:09.625Z,70.2
2018-07-15T01:39:10.394Z,69.6
2018-07-15T01:40:11.269Z,70.3
2018-07-15T01:41:11.991Z,70.3
2018-07-15T01:42:12.712Z,69.6
2018-07-15T01:43:13.449Z,69.6
2018-07-15T01:44:14.179Z,69.8
2018-07-15T01:45:14.908Z,69.5
2018-07-15T01:46:15.637Z,68.7
2018-07-15T01:47:16.714Z,68.9
2018-07-15T01:48:17.431Z,68.7
2018-07-15T01:49:18.167Z,68.6
2018-07-15T01:50:18.899Z,68.6
2018-07-15T01:51:19.678Z,69.0
2018-07-15T01:52:20.346Z,69.1
2018-07-15T01:53:21.075Z,69.3
2018-07-15T01:54:21.795Z,69.7
2018-07-15T01:55:22.514Z,69.7
2018-07-15T01:56:23.240Z,69.7
2018-07-15T01:57:23.972Z,69.5
2018-07-15T01:58:24.699Z,68.7
2018-07-15T01:59:25.688Z,68.7
2018-07-15T02:00:26.415Z,68.6
2018-07-15T02:01:27.140Z,68.7
2018-07-15T02:02:27.856Z,68.7
2018-07-15T02:03:28.596Z,68.4
2018-07-15T02:04:29.317Z,68.9
2018-07-15T02:05:30.051Z,68.3
2018-07-15T02:06:31.032Z,68.8
2018-07-15T02:07:31.741Z,68.3
2018-07-15T02:08:32.481Z,68.4
2018-07-15T02:09:33.543Z,68.9
2018-07-15T02:10:34.273Z,69.0
2018-07-15T02:11:35.011Z,68.9
2018-07-15T02:12:35.725Z,68.6
2018-07-15T02:13:36.706Z,68.9
2018-07-15T02:14:37.434Z,69.0
2018-07-15T02:15:38.159Z,68.7
2018-07-15T02:16:38.885Z,68.2
2018-07-15T02:17:39.615Z,68.2
2018-07-15T02:18:40.340Z,68.6
2018-07-15T02:19:41.069Z,68.6
2018-07-15T02:20:41.804Z,68.6
2018-07-15T02:21:42.578Z,68.5
2018-07-15T02:22:43.293Z,68.6
2018-07-15T02:23:44.024Z,68.4
2018-07-15T02:24:44.743Z,67.8
2018-07-15T02:25:45.475Z,67.6
2018-07-15T02:26:46.204Z,67.5
2018-07-15T02:27:46.917Z,68.1
2018-07-15T02:28:47.645Z,67.8
2018-07-15T02:29:48.372Z,68.0
2018-07-15T02:30:49.101Z,68.5
2018-07-15T02:31:49.877Z,68.6
2018-07-15T02:32:50.624Z,68.0
2018-07-15T02:33:51.345Z,68.7
2018-07-15T02:34:52.072Z,68.4
2018-07-15T02:35:52.780Z,68.6
2018-07-15T02:36:53.631Z,68.2
2018-07-15T02:37:54.252Z,68.3
2018-07-15T02:38:54.963Z,68.7
2018-07-15T02:39:55.695Z,68.8
2018-07-15T02:40:56.424Z,68.6
2018-07-15T02:41:57.411Z,68.1
2018-07-15T02:42:58.492Z,67.4
2018-07-15T02:43:59.215Z,67.5
2018-07-15T02:44:59.938Z,67.8
2018-07-15T02:46:01.041Z,67.5
2018-07-15T02:47:01.769Z,67.8
2018-07-15T02:48:02.813Z,67.5
2018-07-15T02:49:03.528Z,67.8
2018-07-15T02:50:04.508Z,67.5
2018-07-15T02:51:05.231Z,67.6
2018-07-15T02:52:05.947Z,67.5
2018-07-15T02:53:06.677Z,67.7
2018-07-15T02:54:07.398Z,67.3
2018-07-15T02:55:08.127Z,67.3
2018-07-15T02:56:08.837Z,67.3
2018-07-15T02:57:09.572Z,67.8
2018-07-15T02:58:10.640Z,67.8
2018-07-15T02:59:11.383Z,67.8
2018-07-15T03:00:12.104Z,67.8
2018-07-15T03:01:12.827Z,67.8
2018-07-15T03:02:13.573Z,67.7
2018-07-15T03:03:14.288Z,67.4
2018-07-15T03:04:15.018Z,67.5
2018-07-15T03:05:15.744Z,67.6
2018-07-15T03:06:16.480Z,68.2
2018-07-15T03:07:17.199Z,68.0
2018-07-15T03:08:17.922Z,67.5
2018-07-15T03:09:18.634Z,68.1
2018-07-15T03:10:19.377Z,68.1
2018-07-15T03:11:20.105Z,67.5
2018-07-15T03:12:20.828Z,67.4
2018-07-15T03:13:21.554Z,67.3
2018-07-15T03:14:22.286Z,67.3
2018-07-15T03:15:23.269Z,66.9
2018-07-15T03:16:23.982Z,67.2
2018-07-15T03:17:24.771Z,67.3
2018-07-15T03:18:25.433Z,67.2
2018-07-15T03:19:26.162Z,67.2
2018-07-15T03:20:26.898Z,67.4
2018-07-15T03:21:27.627Z,67.7
2018-07-15T03:22:28.346Z,67.7
2018-07-15T03:23:29.078Z,67.5
2018-07-15T03:24:29.802Z,67.0
2018-07-15T03:25:30.536Z,67.2
2018-07-15T03:26:31.274Z,66.9
2018-07-15T03:27:32.046Z,66.6
2018-07-15T03:28:32.769Z,67.0
2018-07-15T03:29:33.494Z,66.6
2018-07-15T03:30:34.218Z,67.5
2018-07-15T03:31:34.948Z,67.1
2018-07-15T03:32:35.704Z,67.2
2018-07-15T03:33:36.417Z,67.4
2018-07-15T03:34:37.388Z,67.4
2018-07-15T03:35:38.107Z,67.8
2018-07-15T03:36:38.833Z,67.5
2018-07-15T03:37:39.602Z,67.4
2018-07-15T03:38:40.327Z,67.4
2018-07-15T03:39:41.054Z,67.9
2018-07-15T03:40:41.780Z,67.6
2018-07-15T03:41:42.522Z,67.2
2018-07-15T03:42:43.590Z,67.2
2018-07-15T03:43:44.313Z,67.0
2018-07-15T03:44:45.047Z,67.4
2018-07-15T03:45:45.767Z,67.3
2018-07-15T03:46:46.497Z,67.9
2018-07-15T03:47:47.280Z,67.9
2018-07-15T03:48:47.997Z,67.7
2018-07-15T03:49:48.719Z,67.7
2018-07-15T03:50:49.437Z,67.4
2018-07-15T03:51:50.173Z,67.5
2018-07-15T03:52:50.898Z,67.4
2018-07-15T03:53:51.629Z,67.5
2018-07-15T03:54:52.356Z,67.3
2018-07-15T03:55:53.100Z,67.4
2018-07-15T03:56:53.826Z,67.1
2018-07-15T03:57:54.558Z,67.2
2018-07-15T03:58:55.545Z,67.1
2018-07-15T03:59:56.264Z,67.4
2018-07-15T04:00:56.990Z,67.1
2018-07-15T04:01:57.708Z,67.4
2018-07-15T04:02:58.439Z,67.2
2018-07-15T04:03:59.163Z,67.0
2018-07-15T04:04:59.888Z,67.2
2018-07-15T04:06:00.858Z,67.0
2018-07-15T04:07:01.598Z,67.3
2018-07-15T04:08:02.329Z,67.3
2018-07-15T04:09:03.056Z,67.3
2018-07-15T04:10:03.823Z,67.3
2018-07-15T04:11:04.552Z,67.6
2018-07-15T04:12:05.274Z,67.3
2018-07-15T04:13:05.996Z,66.9
2018-07-15T04:14:06.712Z,67.3
2018-07-15T04:15:07.891Z,67.4
2018-07-15T04:16:08.631Z,67.3
2018-07-15T04:17:09.361Z,67.3
2018-07-15T04:18:10.094Z,67.3
2018-07-15T04:19:10.805Z,67.2
2018-07-15T04:20:11.535Z,67.2
2018-07-15T04:21:12.256Z,67.2
2018-07-15T04:22:12.987Z,67.0
2018-07-15T04:23:13.715Z,67.4
2018-07-15T04:24:14.447Z,66.7
2018-07-15T04:25:15.166Z,66.7
2018-07-15T04:26:15.890Z,67.1
2018-07-15T04:27:16.877Z,67.3
2018-07-15T04:28:17.625Z,67.5
2018-07-15T04:29:18.330Z,66.6
2018-07-15T04:30:19.063Z,66.6
2018-07-15T04:31:19.793Z,66.4
2018-07-15T04:32:20.532Z,66.3
2018-07-15T04:33:21.260Z,66.6
2018-07-15T04:34:21.986Z,66.3
2018-07-15T04:35:22.964Z,66.5
2018-07-15T04:36:23.686Z,66.5
2018-07-15T04:37:24.416Z,66.6
2018-07-15T04:38:25.150Z,66.3
2018-07-15T04:39:25.928Z,66.3
2018-07-15T04:40:26.655Z,66.6
2018-07-15T04:41:27.383Z,66.8
2018-07-15T04:42:28.111Z,66.6
2018-07-15T04:43:28.832Z,66.7
2018-07-15T04:44:29.557Z,66.9
2018-07-15T04:45:30.326Z,66.7
2018-07-15T04:46:31.070Z,66.8
2018-07-15T04:47:31.786Z,66.8
2018-07-15T04:48:32.511Z,67.2
2018-07-15T04:49:33.237Z,66.9
2018-07-15T04:50:34.013Z,66.9
2018-07-15T04:51:34.747Z,66.9
2018-07-15T04:52:35.473Z,67.0
2018-07-15T04:53:36.201Z,67.1
2018-07-15T04:54:36.920Z,66.9
2018-07-15T04:55:38.013Z,66.9
2018-07-15T04:56:38.748Z,66.3
2018-07-15T04:57:39.476Z,65.8
2018-07-15T04:58:40.201Z,66.6
2018-07-15T04:59:40.921Z,66.4
2018-07-15T05:00:41.667Z,66.4
2018-07-15T05:01:42.398Z,66.5
2018-07-15T05:02:43.123Z,65.7
2018-07-15T05:03:43.842Z,65.8
2018-07-15T05:04:44.592Z,65.7
2018-07-15T05:05:45.309Z,66.2
2018-07-15T05:06:46.037Z,65.8
2018-07-15T05:07:46.810Z,65.7
2018-07-15T05:08:47.575Z,66.0
2018-07-15T05:09:48.298Z,65.9
2018-07-15T05:10:49.279Z,65.7
2018-07-15T05:11:50.012Z,65.4
2018-07-15T05:12:50.791Z,65.6
2018-07-15T05:13:51.765Z,65.7
2018-07-15T05:14:52.489Z,65.8
2018-07-15T05:15:53.206Z,65.6
2018-07-15T05:16:53.933Z,65.5
2018-07-15T05:17:54.713Z,65.5
2018-07-15T05:18:55.430Z,65.4
2018-07-15T05:19:56.166Z,65.5
2018-07-15T05:20:56.903Z,65.4
2018-07-15T05:21:57.627Z,65.2
2018-07-15T05:22:58.349Z,64.9
2018-07-15T05:23:59.424Z,65.4
2018-07-15T05:25:01.114Z,65.5
2018-07-15T05:26:01.977Z,65.7
2018-07-15T05:27:02.972Z,65.7
2018-07-15T05:28:03.688Z,66.0
2018-07-15T05:29:04.455Z,66.2
2018-07-15T05:30:05.178Z,66.8
2018-07-15T05:31:06.153Z,67.7
2018-07-15T05:32:06.882Z,68.6
2018-07-15T05:33:07.613Z,70.3
2018-07-15T05:34:08.334Z,71.6
2018-07-15T05:35:09.118Z,74.4
2018-07-15T05:36:09.849Z,77.3
2018-07-15T05:37:10.585Z,82.1
2018-07-15T05:38:11.323Z,84.3
2018-07-15T05:39:12.051Z,86.0
2018-07-15T05:40:12.836Z,90.0
2018-07-15T05:41:13.569Z,90.6
2018-07-15T05:42:14.301Z,93.0
2018-07-15T05:43:15.033Z,92.2
2018-07-15T05:44:15.800Z,93.9
2018-07-15T05:45:16.494Z,93.4
2018-07-15T05:46:17.225Z,94.5
2018-07-15T05:47:17.948Z,94.4
2018-07-15T05:48:18.677Z,94.4
2018-07-15T05:49:19.399Z,94.6
2018-07-15T05:50:20.127Z,94.0
2018-07-15T05:51:20.851Z,94.0
2018-07-15T05:52:21.575Z,93.6
2018-07-15T05:53:22.292Z,93.4
2018-07-15T05:54:23.060Z,93.7
2018-07-15T05:55:23.797Z,94.0
2018-07-15T05:56:24.771Z,93.8
2018-07-15T05:57:25.489Z,94.3
2018-07-15T05:58:26.236Z,93.5
2018-07-15T05:59:26.958Z,93.7
2018-07-15T06:00:27.695Z,93.4
2018-07-15T06:01:28.417Z,94.1
2018-07-15T06:02:29.423Z,93.2
2018-07-15T06:03:30.187Z,92.6
2018-07-15T06:04:30.893Z,93.5
2018-07-15T06:05:31.633Z,93.5
2018-07-15T06:06:32.361Z,93.2
2018-07-15T06:07:33.345Z,93.0
2018-07-15T06:08:34.066Z,92.9
2018-07-15T06:09:34.801Z,93.3
2018-07-15T06:10:35.602Z,92.7
2018-07-15T06:11:36.267Z,92.5
2018-07-15T06:12:37.031Z,91.8
2018-07-15T06:13:37.756Z,92.6
2018-07-15T06:14:38.487Z,90.8
2018-07-15T06:15:39.225Z,90.8
2018-07-15T06:16:39.941Z,91.2
2018-07-15T06:17:40.675Z,90.8
2018-07-15T06:18:41.406Z,90.7
2018-07-15T06:19:42.159Z,90.1
2018-07-15T06:20:42.868Z,91.4
2018-07-15T06:21:43.587Z,91.9
2018-07-15T06:22:44.335Z,93.0
2018-07-15T06:23:45.061Z,91.1
2018-07-15T06:24:45.782Z,92.3
2018-07-15T06:25:46.528Z,91.9
2018-07-15T06:26:47.253Z,90.7
2018-07-15T06:27:47.985Z,89.7
2018-07-15T06:28:48.719Z,90.2
2018-07-15T06:29:49.437Z,91.8
2018-07-15T06:30:50.170Z,92.3
2018-07-15T06:31:50.980Z,92.1
2018-07-15T06:32:51.936Z,92.0
2018-07-15T06:33:52.674Z,91.8
2018-07-15T06:34:53.397Z,91.2
2018-07-15T06:35:54.134Z,91.8
2018-07-15T06:36:54.871Z,92.4
2018-07-15T06:37:55.604Z,91.6
2018-07-15T06:38:56.325Z,91.2
2018-07-15T06:39:57.067Z,91.2
2018-07-15T06:40:57.784Z,91.8
2018-07-15T06:41:58.501Z,90.9
2018-07-15T06:42:59.231Z,91.6
2018-07-15T06:43:59.950Z,91.6
2018-07-15T06:45:00.734Z,91.1
2018-07-15T06:46:01.465Z,90.7
2018-07-15T06:47:02.187Z,92.7
2018-07-15T06:48:02.914Z,91.6
2018-07-15T06:49:03.658Z,91.6
2018-07-15T06:50:04.434Z,91.6
2018-07-15T06:51:05.175Z,92.7
2018-07-15T06:52:05.911Z,91.9
2018-07-15T06:53:06.646Z,91.6
2018-07-15T06:54:07.406Z,91.1
2018-07-15T06:55:08.122Z,91.7
2018-07-15T06:56:08.845Z,91.7
2018-07-15T06:57:09.654Z,92.4
2018-07-15T06:58:10.375Z,91.4
2018-07-15T06:59:11.354Z,91.1
2018-07-15T07:00:12.087Z,92.1
2018-07-15T07:01:12.820Z,92.1
2018-07-15T07:02:13.610Z,91.8
2018-07-15T07:03:14.333Z,92.0
2018-07-15T07:04:15.065Z,92.6
2018-07-15T07:05:15.789Z,92.6
2018-07-15T07:06:16.757Z,92.7
2018-07-15T07:07:17.630Z,92.6
2018-07-15T07:08:18.259Z,91.8
2018-07-15T07:09:18.999Z,92.4
2018-07-15T07:10:19.728Z,91.8
2018-07-15T07:11:20.444Z,92.6
2018-07-15T07:12:21.179Z,92.6
2018-07-15T07:13:21.947Z,91.9
2018-07-15T07:14:22.692Z,93.4
2018-07-15T07:15:23.435Z,92.6
2018-07-15T07:16:24.164Z,92.5
2018-07-15T07:17:24.887Z,92.4
2018-07-15T07:18:25.679Z,91.9
2018-07-15T07:19:26.401Z,92.0
2018-07-15T07:20:27.128Z,92.7
2018-07-15T07:21:27.851Z,93.0
2018-07-15T07:22:28.584Z,92.2
2018-07-15T07:23:29.348Z,92.7
2018-07-15T07:24:30.092Z,92.9
2018-07-15T07:25:30.835Z,92.8
2018-07-15T07:26:31.563Z,92.0
2018-07-15T07:27:32.291Z,91.9
2018-07-15T07:28:33.080Z,91.3
2018-07-15T07:29:33.827Z,91.3
2018-07-15T07:30:34.597Z,91.3
2018-07-15T07:31:35.836Z,90.2
2018-07-15T07:32:36.678Z,90.5
2018-07-15T07:33:38.225Z,89.8
2018-07-15T07:34:39.299Z,88.0
2018-07-15T07:35:40.019Z,85.8
2018-07-15T07:36:41.267Z,83.4
2018-07-15T07:37:42.060Z,81.4
2018-07-15T07:38:42.939Z,79.6
2018-07-15T07:39:43.637Z,76.2
2018-07-15T07:40:44.377Z,72.0
2018-07-15T07:41:45.116Z,71.2
2018-07-15T07:42:45.865Z,69.0
2018-07-15T07:43:46.592Z,67.0
2018-07-15T07:44:47.326Z,65.9
2018-07-15T07:45:48.477Z,65.7
2018-07-15T07:46:49.321Z,62.6
2018-07-15T07:47:50.165Z,62.8
2018-07-15T07:48:50.934Z,61.1
2018-07-15T07:49:51.668Z,60.3
2018-07-15T07:50:52.502Z,59.1
2018-07-15T07:51:53.960Z,58.4
2018-07-15T07:52:54.730Z,59.9
2018-07-15T07:53:55.460Z,60.0
2018-07-15T07:54:56.441Z,58.2
2018-07-15T07:55:57.174Z,56.5
2018-07-15T07:56:58.081Z,56.8
2018-07-15T07:57:58.814Z,56.0
2018-07-15T07:58:59.931Z,56.0
2018-07-15T08:00:00.714Z,56.0
2018-07-15T08:01:01.436Z,56.4
2018-07-15T08:02:02.228Z,56.2
2018-07-15T08:03:02.917Z,55.1
2018-07-15T08:04:03.997Z,55.8
2018-07-15T08:05:04.837Z,54.6
2018-07-15T08:06:05.728Z,53.9
2018-07-15T08:07:06.466Z,53.7
2018-07-15T08:08:07.197Z,54.6
2018-07-15T08:09:07.923Z,54.2
2018-07-15T08:10:08.666Z,53.4
2018-07-15T08:11:09.404Z,54.2
2018-07-15T08:12:10.136Z,52.6
2018-07-15T08:13:10.882Z,52.2
2018-07-15T08:14:11.999Z,52.9
2018-07-15T08:15:12.807Z,51.7
2018-07-15T08:16:13.519Z,51.3
2018-07-15T08:17:14.260Z,52.9
2018-07-15T08:18:15.030Z,52.2
2018-07-15T08:19:15.768Z,52.7
2018-07-15T08:20:16.515Z,52.8
2018-07-15T08:21:17.246Z,52.5
2018-07-15T08:22:17.978Z,52.1
2018-07-15T08:23:18.802Z,52.9
2018-07-15T08:24:19.633Z,52.8
2018-07-15T08:25:20.382Z,52.4
2018-07-15T08:26:21.119Z,53.6
2018-07-15T08:27:21.854Z,54.4
2018-07-15T08:28:23.109Z,52.6
2018-07-15T08:29:23.834Z,56.2
2018-07-15T08:30:24.572Z,54.7
2018-07-15T08:31:25.311Z,51.4
2018-07-15T08:32:26.058Z,52.1
2018-07-15T08:33:27.605Z,53.6
2018-07-15T08:34:28.336Z,55.3
2018-07-15T08:35:29.077Z,54.6
2018-07-15T08:36:29.859Z,54.1
2018-07-15T08:37:30.648Z,54.2
2018-07-15T08:38:31.482Z,52.5
2018-07-15T08:39:32.656Z,51.7
2018-07-15T08:40:33.455Z,51.5
2018-07-15T08:41:34.518Z,51.1
2018-07-15T08:42:35.246Z,51.8
2018-07-15T08:43:35.979Z,51.4
2018-07-15T08:44:36.717Z,52.0
2018-07-15T08:45:37.501Z,51.1
2018-07-15T08:46:38.336Z,52.6
2018-07-15T08:47:39.106Z,50.7
2018-07-15T08:48:39.831Z,53.1
2018-07-15T08:49:40.842Z,54.1
2018-07-15T08:50:41.926Z,51.4
2018-07-15T08:51:42.742Z,50.6
2018-07-15T08:52:43.530Z,51.2
2018-07-15T08:53:44.290Z,51.3
2018-07-15T08:54:45.113Z,52.8
2018-07-15T08:55:45.861Z,53.9
2018-07-15T08:56:46.689Z,53.6
2018-07-15T08:57:47.890Z,52.9
2018-07-15T08:58:49.121Z,51.0
2018-07-15T08:59:49.898Z,51.0
2018-07-15T09:00:50.642Z,52.4
2018-07-15T09:01:51.395Z,51.0
2018-07-15T09:02:52.185Z,51.4
2018-07-15T09:03:52.916Z,51.1
2018-07-15T09:04:53.934Z,50.7
2018-07-15T09:05:54.656Z,50.9
2018-07-15T09:06:55.392Z,52.0
2018-07-15T09:07:56.183Z,51.3
2018-07-15T09:08:57.865Z,52.7
2018-07-15T09:09:58.906Z,53.1
2018-07-15T09:10:59.642Z,50.9
2018-07-15T09:12:00.374Z,51.1
2018-07-15T09:13:01.114Z,50.3
2018-07-15T09:14:01.847Z,50.2
2018-07-15T09:15:02.585Z,51.0
2018-07-15T09:16:03.784Z,51.7
2018-07-15T09:17:04.636Z,52.6
2018-07-15T09:18:05.429Z,52.5
2018-07-15T09:19:06.177Z,52.9
2018-07-15T09:20:06.911Z,52.6
2018-07-15T09:21:07.647Z,52.7
2018-07-15T09:22:08.376Z,52.9
2018-07-15T09:23:09.112Z,51.8
2018-07-15T09:24:09.899Z,50.8
2018-07-15T09:25:10.641Z,49.7
2018-07-15T09:26:11.362Z,51.6
2018-07-15T09:27:12.348Z,53.0
2018-07-15T09:28:13.343Z,51.3
2018-07-15T09:29:14.164Z,51.2
2018-07-15T09:30:14.886Z,50.5
2018-07-15T09:31:15.631Z,50.6
2018-07-15T09:32:16.360Z,51.7
2018-07-15T09:33:17.087Z,51.4
2018-07-15T09:34:17.891Z,50.6
2018-07-15T09:35:18.689Z,49.6
2018-07-15T09:36:19.376Z,50.8
2018-07-15T09:37:20.116Z,53.0
2018-07-15T09:38:20.839Z,50.7
2018-07-15T09:39:21.588Z,51.1
2018-07-15T09:40:22.324Z,50.5
2018-07-15T09:41:23.061Z,51.1
2018-07-15T09:42:24.151Z,51.3
2018-07-15T09:43:25.134Z,51.7
2018-07-15T09:44:25.854Z,50.8
2018-07-15T09:45:26.589Z,47.9
2018-07-15T09:46:27.325Z,47.7
2018-07-15T09:47:28.062Z,47.9
2018-07-15T09:48:28.812Z,48.1
2018-07-15T09:49:29.552Z,47.3
2018-07-15T09:50:30.287Z,47.8
2018-07-15T09:51:31.022Z,47.9
2018-07-15T09:52:31.762Z,48.9
2018-07-15T09:53:32.511Z,50.0
2018-07-15T09:54:33.356Z,48.5
2018-07-15T09:55:34.548Z,47.9
2018-07-15T09:56:35.334Z,49.6
2018-07-15T09:57:36.477Z,48.7
2018-07-15T09:58:37.529Z,48.2
2018-07-15T09:59:38.269Z,48.4
2018-07-15T10:00:39.059Z,48.6
2018-07-15T10:01:39.792Z,49.1
2018-07-15T10:02:40.775Z,50.9
2018-07-15T10:03:41.501Z,49.7
2018-07-15T10:04:42.268Z,49.4
2018-07-15T10:05:43.028Z,49.1
2018-07-15T10:06:43.811Z,49.5
2018-07-15T10:07:44.653Z,50.2
2018-07-15T10:08:45.441Z,50.7
2018-07-15T10:09:46.586Z,51.7
2018-07-15T10:10:47.714Z,51.7
2018-07-15T10:11:48.453Z,51.9
2018-07-15T10:12:49.201Z,50.8
2018-07-15T10:13:49.931Z,49.7
2018-07-15T10:14:51.081Z,50.3
2018-07-15T10:15:51.917Z,49.2
2018-07-15T10:16:52.951Z,48.3
2018-07-15T10:17:54.221Z,49.9
2018-07-15T10:18:55.005Z,50.9
2018-07-15T10:19:56.211Z,51.0
2018-07-15T10:20:57.703Z,50.2
2018-07-15T10:21:58.530Z,49.2
2018-07-15T10:22:59.779Z,50.2
2018-07-15T10:24:00.592Z,48.8
2018-07-15T10:25:01.339Z,48.5
2018-07-15T10:26:02.089Z,47.9
2018-07-15T10:27:02.824Z,49.1
2018-07-15T10:28:03.566Z,49.4
2018-07-15T10:29:04.350Z,48.9
2018-07-15T10:30:05.101Z,46.9
2018-07-15T10:31:05.829Z,47.3
2018-07-15T10:32:06.575Z,48.0
2018-07-15T10:33:07.319Z,48.1
2018-07-15T10:34:08.091Z,48.3
2018-07-15T10:35:09.080Z,48.7
2018-07-15T10:36:10.075Z,49.2
2018-07-15T10:37:10.820Z,45.0
2018-07-15T10:38:11.561Z,44.9
2018-07-15T10:39:12.341Z,46.7
2018-07-15T10:40:13.076Z,46.8
2018-07-15T10:41:13.816Z,48.6
2018-07-15T10:42:14.562Z,48.6
2018-07-15T10:43:15.309Z,46.3
2018-07-15T10:44:16.056Z,46.4
2018-07-15T10:45:16.785Z,45.0
2018-07-15T10:46:17.790Z,45.7
2018-07-15T10:47:18.513Z,46.8
2018-07-15T10:48:19.514Z,45.1
2018-07-15T10:49:20.250Z,45.2
2018-07-15T10:50:20.985Z,46.2
2018-07-15T10:51:21.786Z,45.5
2018-07-15T10:52:22.519Z,44.9
2018-07-15T10:53:23.250Z,45.0
2018-07-15T10:54:23.987Z,43.5
2018-07-15T10:55:24.768Z,44.2
2018-07-15T10:56:25.661Z,44.5
2018-07-15T10:57:26.399Z,44.5
2018-07-15T10:58:27.124Z,43.4
2018-07-15T10:59:27.861Z,45.2
2018-07-15T11:00:28.860Z,46.7
2018-07-15T11:01:30.030Z,47.9
2018-07-15T11:02:30.814Z,47.0
2018-07-15T11:03:31.957Z,46.9
2018-07-15T11:04:33.217Z,45.9
2018-07-15T11:05:34.049Z,44.8
2018-07-15T11:06:34.790Z,44.9
2018-07-15T11:07:35.521Z,45.4
2018-07-15T11:08:36.260Z,43.0
2018-07-15T11:09:37.468Z,42.4
2018-07-15T11:10:38.292Z,40.7
2018-07-15T11:11:39.027Z,41.0
2018-07-15T11:12:40.029Z,41.1
2018-07-15T11:13:41.346Z,41.5
2018-07-15T11:14:42.127Z,40.8
2018-07-15T11:15:42.866Z,41.5
2018-07-15T11:16:43.612Z,43.3
2018-07-15T11:17:44.347Z,43.8
2018-07-15T11:18:45.337Z,42.4
2018-07-15T11:19:46.133Z,41.3
2018-07-15T11:20:46.873Z,42.1
2018-07-15T11:21:47.871Z,43.1
2018-07-15T11:22:48.614Z,42.1
2018-07-15T11:23:49.355Z,41.9
2018-07-15T11:24:50.428Z,41.2
2018-07-15T11:25:51.190Z,42.1
2018-07-15T11:26:52.431Z,42.5
2018-07-15T11:27:53.170Z,42.7
2018-07-15T11:28:53.909Z,41.9
2018-07-15T11:29:54.966Z,42.8
2018-07-15T11:30:55.870Z,42.7
2018-07-15T11:31:56.501Z,39.3
2018-07-15T11:32:57.239Z,38.4
2018-07-15T11:33:57.977Z,37.2
2018-07-15T11:34:58.763Z,37.1
2018-07-15T11:35:59.502Z,38.3
2018-07-15T11:37:00.230Z,37.7
2018-07-15T11:38:00.962Z,38.1
2018-07-15T11:39:01.776Z,39.3
2018-07-15T11:40:02.428Z,39.3
2018-07-15T11:41:03.172Z,39.3
2018-07-15T11:42:03.921Z,39.4
2018-07-15T11:43:04.746Z,38.1
2018-07-15T11:44:05.529Z,38.3
2018-07-15T11:45:06.261Z,38.1
2018-07-15T11:46:07.015Z,35.6
2018-07-15T11:47:07.749Z,38.0
2018-07-15T11:48:08.774Z,36.9
2018-07-15T11:49:09.480Z,35.6
2018-07-15T11:50:10.222Z,36.8
2018-07-15T11:51:10.967Z,36.4
2018-07-15T11:52:11.740Z,37.2
2018-07-15T11:53:12.497Z,38.8
2018-07-15T11:54:13.263Z,38.4
2018-07-15T11:55:14.068Z,37.0
2018-07-15T11:56:14.798Z,36.6
2018-07-15T11:57:15.953Z,38.0
2018-07-15T11:58:17.249Z,38.3
2018-07-15T11:59:19.000Z,37.7
2018-07-15T12:00:20.103Z,37.5
2018-07-15T12:01:20.860Z,37.8
2018-07-15T12:02:22.032Z,38.1
2018-07-15T12:03:22.848Z,35.9
2018-07-15T12:04:23.596Z,36.1
2018-07-15T12:05:24.344Z,36.0
2018-07-15T12:06:25.093Z,35.4
2018-07-15T12:07:26.439Z,35.2
2018-07-15T12:08:27.259Z,35.7
2018-07-15T12:09:28.000Z,35.3
2018-07-15T12:10:29.000Z,36.8
2018-07-15T12:11:29.781Z,36.0
2018-07-15T12:12:30.520Z,36.2
2018-07-15T12:13:31.282Z,37.8
2018-07-15T12:14:32.027Z,36.5
2018-07-15T12:15:32.766Z,37.0
2018-07-15T12:16:33.551Z,37.2
2018-07-15T12:17:34.293Z,37.3
2018-07-15T12:18:35.038Z,36.5
2018-07-15T12:19:35.777Z,36.9
2018-07-15T12:20:36.771Z,35.4
2018-07-15T12:21:38.098Z,35.6
2018-07-15T12:22:38.947Z,36.6
2018-07-15T12:23:40.128Z,36.4
2018-07-15T12:24:40.877Z,36.2
2018-07-15T12:25:41.616Z,36.8
2018-07-15T12:26:42.393Z,37.2
2018-07-15T12:27:43.380Z,36.8
2018-07-15T12:28:44.127Z,35.7
2018-07-15T12:29:44.864Z,34.9
2018-07-15T12:30:45.607Z,35.5
2018-07-15T12:31:46.342Z,36.4
2018-07-15T12:32:47.099Z,34.8
2018-07-15T12:33:47.974Z,35.3
2018-07-15T12:34:48.859Z,34.8
2018-07-15T12:35:49.607Z,35.2
2018-07-15T12:36:50.397Z,36.2
2018-07-15T12:37:51.448Z,36.6
2018-07-15T12:38:52.247Z,37.7
2018-07-15T12:39:53.024Z,36.1
2018-07-15T12:40:53.754Z,36.1
2018-07-15T12:41:54.491Z,36.0
2018-07-15T12:42:55.229Z,36.1
2018-07-15T12:43:55.964Z,34.6
2018-07-15T12:44:56.708Z,36.7
2018-07-15T12:45:57.454Z,37.1
2018-07-15T12:46:58.194Z,37.6
2018-07-15T12:47:58.931Z,39.2
2018-07-15T12:48:59.683Z,39.1
2018-07-15T12:50:00.424Z,36.5
2018-07-15T12:51:01.630Z,35.9
2018-07-15T12:52:02.496Z,36.3
2018-07-15T12:53:03.229Z,36.4
2018-07-15T12:54:04.506Z,34.9
2018-07-15T12:55:05.289Z,35.2
2018-07-15T12:56:06.040Z,35.9
2018-07-15T12:57:07.216Z,35.9
2018-07-15T12:58:08.042Z,36.5
2018-07-15T12:59:09.276Z,35.2
2018-07-15T13:00:10.095Z,36.2
2018-07-15T13:01:10.824Z,37.0
2018-07-15T13:02:11.659Z,36.5
2018-07-15T13:03:12.936Z,35.6
2018-07-15T13:04:14.080Z,34.3
2018-07-15T13:05:14.853Z,35.3
2018-07-15T13:06:16.265Z,36.9
2018-07-15T13:07:17.113Z,35.5
2018-07-15T13:08:17.882Z,35.1
2018-07-15T13:09:18.654Z,36.8
2018-07-15T13:10:19.404Z,35.5
2018-07-15T13:11:20.496Z,35.3
2018-07-15T13:12:21.651Z,35.7
2018-07-15T13:13:23.115Z,34.5
2018-07-15T13:14:23.970Z,34.6
2018-07-15T13:15:24.761Z,34.7
2018-07-15T13:16:26.249Z,34.8
2018-07-15T13:17:27.025Z,33.1
2018-07-15T13:18:27.759Z,32.8
2018-07-15T13:19:28.762Z,34.4
2018-07-15T13:20:29.518Z,34.7
2018-07-15T13:21:30.261Z,35.6
2018-07-15T13:22:31.051Z,36.5
2018-07-15T13:23:31.785Z,37.4
2018-07-15T13:24:32.534Z,36.1
2018-07-15T13:25:33.760Z,35.3
2018-07-15T13:26:34.924Z,36.7
2018-07-15T13:27:36.233Z,36.0
2018-07-15T13:28:37.580Z,35.3
2018-07-15T13:29:38.424Z,35.2